createdAt,value
2022-11-02T00:04:42.328Z,46.90
2022-11-02T00:09:45.377Z,46.80
2022-11-02T00:14:48.425Z,46.80
2022-11-02T00:19:53.004Z,46.90
2022-11-02T00:24:56.695Z,46.80
2022-11-02T00:30:00.744Z,47.10
2022-11-02T00:35:05.523Z,46.80
2022-11-02T00:40:09.631Z,47.00
2022-11-02T00:45:12.804Z,47.10
2022-11-02T00:50:17.313Z,47.20
2022-11-02T00:55:20.811Z,47.40
2022-11-02T01:00:23.874Z,47.10
2022-11-02T01:05:28.420Z,47.20
2022-11-02T01:10:31.609Z,47.30
2022-11-02T01:15:34.706Z,47.20
2022-11-02T01:20:39.140Z,47.10
2022-11-02T01:25:46.921Z,47.00
2022-11-02T01:30:49.994Z,47.00
2022-11-02T01:35:54.626Z,47.70
2022-11-02T01:40:57.696Z,47.10
2022-11-02T01:46:05.487Z,47.10
2022-11-02T01:51:14.721Z,47.20
2022-11-02T01:56:20.401Z,47.30
2022-11-02T02:01:24.367Z,47.30
2022-11-02T02:06:28.939Z,47.30
2022-11-02T02:11:34.237Z,47.40
2022-11-02T02:16:54.802Z,47.10
2022-11-02T02:22:36.717Z,47.20
2022-11-02T02:28:03.444Z,47.30
2022-11-02T02:33:11.511Z,47.00
2022-11-02T02:38:19.000Z,47.20
2022-11-02T02:43:31.097Z,47.00
2022-11-02T02:48:37.257Z,47.60
2022-11-02T02:53:44.796Z,46.90
2022-11-02T02:58:56.847Z,47.00
2022-11-02T03:03:59.924Z,47.40
2022-11-02T03:09:10.283Z,47.40
2022-11-02T03:14:29.826Z,47.30
2022-11-02T03:19:42.895Z,47.50
2022-11-02T03:24:51.093Z,47.40
2022-11-02T03:30:01.887Z,47.30
2022-11-02T03:35:09.276Z,47.20
2022-11-02T03:40:18.281Z,47.00
2022-11-02T03:45:25.907Z,47.60
2022-11-02T03:50:28.981Z,46.90
2022-11-02T03:55:36.382Z,47.00
2022-11-02T04:00:48.598Z,47.90
2022-11-02T04:05:51.689Z,47.00
2022-11-02T04:11:12.523Z,47.00
2022-11-02T04:16:17.588Z,47.10
2022-11-02T04:21:20.631Z,47.60
2022-11-02T04:26:23.684Z,46.90
2022-11-02T04:31:28.116Z,46.80
2022-11-02T04:36:32.479Z,46.60
2022-11-02T04:41:44.329Z,46.60
2022-11-02T04:46:49.606Z,46.60
2022-11-02T04:51:52.680Z,46.50
2022-11-02T04:56:55.763Z,46.30
2022-11-02T05:02:00.403Z,46.40
2022-11-02T05:07:06.418Z,46.60
2022-11-02T05:12:09.939Z,46.20
2022-11-02T05:17:16.287Z,46.20
2022-11-02T05:22:19.999Z,46.10
2022-11-02T05:27:23.094Z,46.60
2022-11-02T05:32:28.235Z,46.60
2022-11-02T05:37:31.299Z,46.30
2022-11-02T05:42:35.187Z,46.60
2022-11-02T05:47:39.786Z,46.90
2022-11-02T05:52:42.852Z,47.00
2022-11-02T05:57:51.010Z,46.90
2022-11-02T06:02:59.245Z,47.10
2022-11-02T06:08:02.683Z,47.00
2022-11-02T06:13:05.958Z,47.00
2022-11-02T06:18:10.547Z,47.00
2022-11-02T06:23:17.961Z,47.10
2022-11-02T06:28:21.519Z,47.00
2022-11-02T06:33:26.216Z,46.90
2022-11-02T06:38:29.286Z,46.80
2022-11-02T06:43:32.367Z,47.50
2022-11-02T06:48:36.830Z,46.70
2022-11-02T06:53:39.909Z,46.70
2022-11-02T06:58:43.005Z,46.80
2022-11-02T07:03:47.458Z,46.90
2022-11-02T07:08:50.532Z,47.00
2022-11-02T07:13:53.592Z,47.10
2022-11-02T07:18:58.069Z,47.30
2022-11-02T07:24:01.140Z,47.60
2022-11-02T07:29:04.249Z,47.50
2022-11-02T07:34:12.771Z,47.50
2022-11-02T07:39:19.020Z,47.90
2022-11-02T07:44:22.162Z,47.70
2022-11-02T07:49:26.718Z,48.10
2022-11-02T07:54:29.793Z,48.70
2022-11-02T07:59:32.968Z,48.70
2022-11-02T08:04:39.558Z,49.30
2022-11-02T08:09:45.391Z,50.20
2022-11-02T08:14:48.466Z,50.40
2022-11-02T08:19:52.917Z,50.80
2022-11-02T08:24:55.980Z,51.50
2022-11-02T08:29:59.071Z,51.40
2022-11-02T08:35:04.665Z,51.80
2022-11-02T08:40:09.111Z,52.60
2022-11-02T08:45:12.435Z,52.70
2022-11-02T08:50:16.994Z,52.20
2022-11-02T08:55:20.408Z,51.70
2022-11-02T09:00:25.320Z,52.00
2022-11-02T09:05:30.120Z,52.00
2022-11-02T09:10:35.425Z,51.80
2022-11-02T09:15:39.817Z,52.20
2022-11-02T09:20:44.334Z,51.60
2022-11-02T09:25:47.688Z,51.30
2022-11-02T09:30:50.843Z,50.90
2022-11-02T09:35:55.263Z,51.00
2022-11-02T09:41:09.609Z,50.70
2022-11-02T09:46:17.139Z,50.60
2022-11-02T09:51:26.562Z,50.40
2022-11-02T09:56:32.341Z,50.30
2022-11-02T10:01:56.749Z,50.10
2022-11-02T10:07:10.299Z,50.50
2022-11-02T10:12:16.091Z,49.40
2022-11-02T10:17:22.944Z,50.00
2022-11-02T10:22:30.415Z,49.40
2022-11-02T10:27:38.011Z,48.90
2022-11-02T10:38:05.715Z,48.60
2022-11-02T10:43:22.887Z,47.70
2022-11-02T10:48:35.953Z,46.50
2022-11-02T10:53:43.772Z,46.50
2022-11-02T10:58:55.923Z,46.60
2022-11-02T11:04:01.480Z,46.50
2022-11-02T11:09:08.374Z,46.60
2022-11-02T11:19:49.967Z,45.50
2022-11-02T11:24:54.756Z,45.80
2022-11-02T11:29:59.420Z,46.10
2022-11-02T11:35:06.060Z,45.70
2022-11-02T11:40:19.079Z,45.40
2022-11-02T11:45:24.688Z,44.80
2022-11-02T11:50:29.112Z,44.80
2022-11-02T11:55:34.524Z,45.70
2022-11-02T12:00:37.596Z,44.80
2022-11-02T12:05:55.431Z,45.20
2022-11-02T12:11:13.804Z,43.70
2022-11-02T12:16:31.019Z,44.10
2022-11-02T12:21:51.900Z,43.80
2022-11-02T12:27:11.916Z,44.10
2022-11-02T12:32:27.042Z,44.10
2022-11-02T12:37:41.752Z,43.30
2022-11-02T12:42:53.868Z,43.70
2022-11-02T12:47:59.093Z,43.50
2022-11-02T12:53:16.849Z,43.80
2022-11-02T12:58:24.334Z,43.10
2022-11-02T13:03:37.453Z,43.40
2022-11-02T13:08:47.037Z,42.90
2022-11-02T13:13:54.890Z,43.80
2022-11-02T13:19:01.363Z,43.40
2022-11-02T13:24:07.030Z,43.90
2022-11-02T13:29:18.706Z,43.30
2022-11-02T13:34:33.780Z,42.90
2022-11-02T13:39:40.045Z,42.40
2022-11-02T13:45:15.769Z,44.20
2022-11-02T13:50:24.060Z,43.30
2022-11-02T13:55:44.504Z,43.80
2022-11-02T14:00:50.520Z,43.20
2022-11-02T14:05:56.973Z,43.70
2022-11-02T14:11:06.868Z,43.30
2022-11-02T14:16:11.360Z,42.90
2022-11-02T14:21:43.443Z,43.60
2022-11-02T14:26:57.538Z,42.60
2022-11-02T14:32:08.106Z,41.80
2022-11-02T14:37:27.760Z,41.70
2022-11-02T14:42:59.611Z,41.30
2022-11-02T14:48:06.877Z,41.50
2022-11-02T14:53:24.760Z,42.00
2022-11-02T14:58:34.664Z,42.20
2022-11-02T15:03:41.381Z,41.60
2022-11-02T15:08:52.476Z,41.90
2022-11-02T15:13:56.009Z,41.80
2022-11-02T15:19:40.065Z,42.80
2022-11-02T15:24:45.069Z,42.20
2022-11-02T15:29:49.526Z,42.50
2022-11-02T15:34:56.478Z,42.50
2022-11-02T15:40:02.307Z,42.30
2022-11-02T15:50:55.581Z,42.20
2022-11-02T15:56:25.359Z,42.20
2022-11-02T16:01:29.631Z,42.20
2022-11-02T16:06:38.034Z,43.00
2022-11-02T16:11:41.147Z,43.00
2022-11-02T16:16:47.954Z,43.40
2022-11-02T16:21:54.982Z,42.60
2022-11-02T16:27:01.960Z,42.70
2022-11-02T16:32:09.472Z,43.10
2022-11-02T16:37:17.207Z,42.70
2022-11-02T16:42:24.215Z,41.80
2022-11-02T16:47:36.952Z,41.60
2022-11-02T16:52:41.600Z,41.40
2022-11-02T16:57:46.760Z,41.80
2022-11-02T17:02:49.839Z,41.60
2022-11-02T17:08:00.492Z,41.90
2022-11-02T17:13:07.006Z,41.20
2022-11-02T17:18:27.427Z,41.70
2022-11-02T17:23:34.085Z,41.30
2022-11-02T17:28:45.983Z,41.50
2022-11-02T17:33:49.701Z,40.80
2022-11-02T17:38:54.766Z,41.50
2022-11-02T17:43:57.880Z,41.30
2022-11-02T17:49:01.034Z,41.60
2022-11-02T17:54:06.176Z,41.60
2022-11-02T17:59:09.324Z,41.50
2022-11-02T18:04:12.444Z,41.80
2022-11-02T18:09:19.330Z,41.80
2022-11-02T18:14:22.554Z,41.60
2022-11-02T18:19:25.715Z,41.70
2022-11-02T18:24:30.232Z,41.60
2022-11-02T18:29:33.358Z,41.40
2022-11-02T18:34:36.795Z,41.30
2022-11-02T18:39:41.515Z,41.30
2022-11-02T18:44:44.613Z,41.00
2022-11-02T18:49:47.737Z,41.90
2022-11-02T18:54:53.184Z,41.30
2022-11-02T18:59:56.271Z,41.10
2022-11-02T19:04:59.322Z,41.30
2022-11-02T19:10:04.261Z,41.30
2022-11-02T19:15:08.359Z,41.20
2022-11-02T19:20:12.262Z,41.20
2022-11-02T19:25:17.109Z,41.40
2022-11-02T19:30:20.167Z,41.60
2022-11-02T19:35:23.239Z,41.70
2022-11-02T19:40:27.695Z,41.60
2022-11-02T19:45:30.747Z,41.00
2022-11-02T19:50:33.877Z,41.10
2022-11-02T19:55:38.311Z,41.30
2022-11-02T20:00:41.401Z,41.40
2022-11-02T20:05:47.376Z,41.50
2022-11-02T20:10:51.831Z,41.40
2022-11-02T20:15:57.015Z,41.20
2022-11-02T20:21:04.778Z,41.10
2022-11-02T20:26:11.324Z,41.80
2022-11-02T20:31:16.639Z,41.00
2022-11-02T20:36:19.773Z,41.20
2022-11-02T20:41:26.100Z,41.40
2022-11-02T20:46:40.984Z,41.20
2022-11-02T20:51:44.864Z,41.10
2022-11-02T20:56:49.812Z,41.10
2022-11-02T21:01:53.224Z,41.20
2022-11-02T21:06:56.536Z,41.20
2022-11-02T21:12:18.880Z,41.20
2022-11-02T21:17:22.020Z,41.20
2022-11-02T21:22:26.184Z,41.20
2022-11-02T21:27:30.631Z,41.30
2022-11-02T21:32:33.723Z,41.30
2022-11-02T21:37:36.892Z,41.70
2022-11-02T21:42:41.492Z,41.30
2022-11-02T21:47:44.737Z,41.50
2022-11-02T21:52:47.835Z,41.20
2022-11-02T21:57:52.352Z,41.50
2022-11-02T22:02:55.481Z,41.30
2022-11-02T22:08:16.173Z,41.30
2022-11-02T22:13:37.151Z,41.30
2022-11-02T22:18:40.394Z,41.30
2022-11-02T22:23:45.060Z,41.40
2022-11-02T22:28:50.459Z,41.30
2022-11-02T22:33:55.830Z,41.30
2022-11-02T22:39:00.942Z,41.20
2022-11-02T22:44:06.917Z,41.20
2022-11-02T22:49:11.897Z,41.50
2022-11-02T22:54:16.075Z,41.50
2022-11-02T22:59:20.966Z,41.20
2022-11-02T23:04:24.032Z,41.30
2022-11-02T23:09:27.196Z,41.40
2022-11-02T23:14:31.781Z,41.40
2022-11-02T23:19:37.384Z,41.30
2022-11-02T23:25:14.371Z,41.10
2022-11-02T23:30:36.397Z,40.90
2022-11-02T23:35:56.686Z,41.20
2022-11-02T23:40:59.792Z,41.10
2022-11-02T23:46:04.292Z,41.30
2022-11-02T23:51:24.963Z,41.20
2022-11-02T23:56:46.371Z,41.50
